sensor_id;sensor_type;location;lat;lon;timestamp;pressure;altitude;pressure_sealevel;temperature
69186;BMP280;56298;49.246;9.410;2023-09-19T00:01:45;98998.84;;;16.80
69186;BMP280;56298;49.246;9.410;2023-09-19T00:04:11;98993.75;;;16.79
69186;BMP280;56298;49.246;9.410;2023-09-19T00:06:38;98990.53;;;16.80
69186;BMP280;56298;49.246;9.410;2023-09-19T00:09:04;98991.28;;;16.84
69186;BMP280;56298;49.246;9.410;2023-09-19T00:11:29;98988.94;;;16.83
69186;BMP280;56298;49.246;9.410;2023-09-19T00:13:54;98984.59;;;16.86
69186;BMP280;56298;49.246;9.410;2023-09-19T00:16:20;98992.91;;;16.86
69186;BMP280;56298;49.246;9.410;2023-09-19T00:18:46;98997.19;;;16.90
69186;BMP280;56298;49.246;9.410;2023-09-19T00:21:12;99000.78;;;16.87
69186;BMP280;56298;49.246;9.410;2023-09-19T00:23:38;98995.28;;;16.83
69186;BMP280;56298;49.246;9.410;2023-09-19T00:26:03;98986.97;;;16.83
69186;BMP280;56298;49.246;9.410;2023-09-19T00:28:29;98988.19;;;16.82
69186;BMP280;56298;49.246;9.410;2023-09-19T00:30:55;98988.13;;;16.86
69186;BMP280;56298;49.246;9.410;2023-09-19T00:33:21;98987.34;;;16.86
69186;BMP280;56298;49.246;9.410;2023-09-19T00:35:50;98990.50;;;16.88
69186;BMP280;56298;49.246;9.410;2023-09-19T00:38:16;98992.53;;;16.83
69186;BMP280;56298;49.246;9.410;2023-09-19T00:40:46;98987.34;;;16.86
69186;BMP280;56298;49.246;9.410;2023-09-19T00:43:11;98997.25;;;16.87
69186;BMP280;56298;49.246;9.410;2023-09-19T00:45:37;99000.81;;;16.83
69186;BMP280;56298;49.246;9.410;2023-09-19T00:48:07;98998.44;;;16.82
69186;BMP280;56298;49.246;9.410;2023-09-19T00:50:34;98995.72;;;16.78
69186;BMP280;56298;49.246;9.410;2023-09-19T00:53:00;99013.94;;;16.76
69186;BMP280;56298;49.246;9.410;2023-09-19T00:55:29;99007.97;;;16.81
69186;BMP280;56298;49.246;9.410;2023-09-19T00:57:56;99012.31;;;16.82
69186;BMP280;56298;49.246;9.410;2023-09-19T01:00:21;99021.81;;;16.81
69186;BMP280;56298;49.246;9.410;2023-09-19T01:02:48;99024.13;;;16.86
69186;BMP280;56298;49.246;9.410;2023-09-19T01:05:13;99020.16;;;16.91
69186;BMP280;56298;49.246;9.410;2023-09-19T01:07:38;99027.25;;;16.92
69186;BMP280;56298;49.246;9.410;2023-09-19T01:10:11;99023.69;;;16.91
69186;BMP280;56298;49.246;9.410;2023-09-19T01:18:39;99028.00;;;17.00
69186;BMP280;56298;49.246;9.410;2023-09-19T01:21:12;99042.50;;;17.11
69186;BMP280;56298;49.246;9.410;2023-09-19T01:27:06;99039.25;;;17.23
69186;BMP280;56298;49.246;9.410;2023-09-19T01:29:39;99045.59;;;17.24
69186;BMP280;56298;49.246;9.410;2023-09-19T01:32:10;99045.53;;;17.27
69186;BMP280;56298;49.246;9.410;2023-09-19T01:34:46;99040.34;;;17.33
69186;BMP280;56298;49.246;9.410;2023-09-19T01:37:16;99035.19;;;17.35
69186;BMP280;56298;49.246;9.410;2023-09-19T01:39:50;99042.28;;;17.36
69186;BMP280;56298;49.246;9.410;2023-09-19T01:42:23;99043.50;;;17.35
69186;BMP280;56298;49.246;9.410;2023-09-19T01:45:14;99051.09;;;17.27
69186;BMP280;56298;49.246;9.410;2023-09-19T01:47:50;99048.00;;;17.18
69186;BMP280;56298;49.246;9.410;2023-09-19T01:53:18;99046.88;;;17.12
69186;BMP280;56298;49.246;9.410;2023-09-19T01:55:48;99052.34;;;17.19
69186;BMP280;56298;49.246;9.410;2023-09-19T02:01:01;99046.75;;;17.26
69186;BMP280;56298;49.246;9.410;2023-09-19T02:03:27;99058.94;;;17.33
69186;BMP280;56298;49.246;9.410;2023-09-19T02:05:54;99060.06;;;17.39
69186;BMP280;56298;49.246;9.410;2023-09-19T02:08:20;99066.41;;;17.39
69186;BMP280;56298;49.246;9.410;2023-09-19T02:10:49;99065.63;;;17.39
69186;BMP280;56298;49.246;9.410;2023-09-19T02:13:18;99064.00;;;17.45
69186;BMP280;56298;49.246;9.410;2023-09-19T02:15:44;99059.28;;;17.42
69186;BMP280;56298;49.246;9.410;2023-09-19T02:18:10;99066.38;;;17.43
69186;BMP280;56298;49.246;9.410;2023-09-19T02:20:35;99058.03;;;17.43
69186;BMP280;56298;49.246;9.410;2023-09-19T02:23:00;99064.03;;;17.38
69186;BMP280;56298;49.246;9.410;2023-09-19T02:25:27;99062.91;;;17.35
69186;BMP280;56298;49.246;9.410;2023-09-19T02:27:53;99065.75;;;17.24
69186;BMP280;56298;49.246;9.410;2023-09-19T02:30:19;99073.00;;;17.15
69186;BMP280;56298;49.246;9.410;2023-09-19T02:32:46;99084.41;;;17.20
69186;BMP280;56298;49.246;9.410;2023-09-19T02:35:11;99083.22;;;17.21
69186;BMP280;56298;49.246;9.410;2023-09-19T02:37:39;99085.53;;;17.26
69186;BMP280;56298;49.246;9.410;2023-09-19T02:40:04;99083.53;;;17.31
69186;BMP280;56298;49.246;9.410;2023-09-19T02:42:43;99082.31;;;17.35
69186;BMP280;56298;49.246;9.410;2023-09-19T02:45:14;99084.69;;;17.37
69186;BMP280;56298;49.246;9.410;2023-09-19T02:47:42;99089.44;;;17.33
69186;BMP280;56298;49.246;9.410;2023-09-19T02:50:08;99086.75;;;17.22
69186;BMP280;56298;49.246;9.410;2023-09-19T02:52:35;99092.72;;;17.20
69186;BMP280;56298;49.246;9.410;2023-09-19T02:55:01;99089.13;;;17.23
69186;BMP280;56298;49.246;9.410;2023-09-19T02:57:26;99085.22;;;17.21
69186;BMP280;56298;49.246;9.410;2023-09-19T02:59:52;99088.44;;;17.12
69186;BMP280;56298;49.246;9.410;2023-09-19T03:02:18;99090.84;;;17.06
69186;BMP280;56298;49.246;9.410;2023-09-19T03:04:44;99086.53;;;17.05
69186;BMP280;56298;49.246;9.410;2023-09-19T03:07:10;99088.91;;;17.03
69186;BMP280;56298;49.246;9.410;2023-09-19T03:09:36;99102.72;;;17.07
69186;BMP280;56298;49.246;9.410;2023-09-19T03:12:02;99100.34;;;17.09
69186;BMP280;56298;49.246;9.410;2023-09-19T03:14:29;99103.06;;;17.12
69186;BMP280;56298;49.246;9.410;2023-09-19T03:16:59;99108.59;;;17.16
69186;BMP280;56298;49.246;9.410;2023-09-19T03:19:24;99109.72;;;17.22
69186;BMP280;56298;49.246;9.410;2023-09-19T03:21:51;99107.38;;;17.21
69186;BMP280;56298;49.246;9.410;2023-09-19T03:24:16;99114.03;;;17.27
69186;BMP280;56298;49.246;9.410;2023-09-19T03:26:42;99116.41;;;17.28
69186;BMP280;56298;49.246;9.410;2023-09-19T03:29:07;99113.16;;;17.37
69186;BMP280;56298;49.246;9.410;2023-09-19T03:31:33;99108.78;;;17.40
69186;BMP280;56298;49.246;9.410;2023-09-19T03:34:01;99105.66;;;17.34
69186;BMP280;56298;49.246;9.410;2023-09-19T03:36:29;99110.78;;;17.39
69186;BMP280;56298;49.246;9.410;2023-09-19T03:38:54;99118.28;;;17.39
69186;BMP280;56298;49.246;9.410;2023-09-19T03:41:19;99115.94;;;17.37
69186;BMP280;56298;49.246;9.410;2023-09-19T03:43:45;99116.72;;;17.38
69186;BMP280;56298;49.246;9.410;2023-09-19T03:46:10;99123.50;;;17.33
69186;BMP280;56298;49.246;9.410;2023-09-19T03:48:37;99119.69;;;17.16
69186;BMP280;56298;49.246;9.410;2023-09-19T03:51:03;99123.81;;;16.93
69186;BMP280;56298;49.246;9.410;2023-09-19T03:53:28;99124.28;;;16.81
69186;BMP280;56298;49.246;9.410;2023-09-19T03:55:53;99111.25;;;16.78
69186;BMP280;56298;49.246;9.410;2023-09-19T03:58:19;99121.53;;;16.77
69186;BMP280;56298;49.246;9.410;2023-09-19T04:00:45;99117.22;;;16.73
69186;BMP280;56298;49.246;9.410;2023-09-19T04:03:10;99111.28;;;16.71
69186;BMP280;56298;49.246;9.410;2023-09-19T04:05:44;99118.44;;;16.68
69186;BMP280;56298;49.246;9.410;2023-09-19T04:08:09;99115.28;;;16.62
69186;BMP280;56298;49.246;9.410;2023-09-19T04:10:34;99116.44;;;16.65
69186;BMP280;56298;49.246;9.410;2023-09-19T04:13:00;99119.66;;;16.60
69186;BMP280;56298;49.246;9.410;2023-09-19T04:15:26;99108.19;;;16.54
69186;BMP280;56298;49.246;9.410;2023-09-19T04:17:51;99120.88;;;16.51
69186;BMP280;56298;49.246;9.410;2023-09-19T04:20:20;99116.97;;;16.45
69186;BMP280;56298;49.246;9.410;2023-09-19T04:22:47;99124.84;;;16.43
69186;BMP280;56298;49.246;9.410;2023-09-19T04:25:13;99122.50;;;16.38
69186;BMP280;56298;49.246;9.410;2023-09-19T04:27:38;99120.56;;;16.31
69186;BMP280;56298;49.246;9.410;2023-09-19T04:30:04;99133.63;;;16.31
69186;BMP280;56298;49.246;9.410;2023-09-19T04:32:35;99128.50;;;16.29
69186;BMP280;56298;49.246;9.410;2023-09-19T04:35:03;99139.19;;;16.27
69186;BMP280;56298;49.246;9.410;2023-09-19T04:37:31;99142.72;;;16.28
69186;BMP280;56298;49.246;9.410;2023-09-19T04:39:56;99147.50;;;16.27
69186;BMP280;56298;49.246;9.410;2023-09-19T04:42:22;99145.50;;;16.28
69186;BMP280;56298;49.246;9.410;2023-09-19T04:44:49;99153.78;;;16.28
69186;BMP280;56298;49.246;9.410;2023-09-19T04:47:14;99146.69;;;16.26
69186;BMP280;56298;49.246;9.410;2023-09-19T04:49:41;99155.00;;;16.23
69186;BMP280;56298;49.246;9.410;2023-09-19T04:52:06;99158.13;;;16.29
69186;BMP280;56298;49.246;9.410;2023-09-19T04:54:32;99160.09;;;16.32
69186;BMP280;56298;49.246;9.410;2023-09-19T04:56:58;99167.22;;;16.36
69186;BMP280;56298;49.246;9.410;2023-09-19T04:59:24;99164.44;;;16.40
69186;BMP280;56298;49.246;9.410;2023-09-19T05:01:49;99172.28;;;16.49
69186;BMP280;56298;49.246;9.410;2023-09-19T05:04:14;99174.69;;;16.43
69186;BMP280;56298;49.246;9.410;2023-09-19T05:06:40;99183.00;;;16.39
69186;BMP280;56298;49.246;9.410;2023-09-19T05:09:05;99186.56;;;16.44
69186;BMP280;56298;49.246;9.410;2023-09-19T05:11:31;99180.22;;;16.50
69186;BMP280;56298;49.246;9.410;2023-09-19T05:13:56;99180.59;;;16.56
69186;BMP280;56298;49.246;9.410;2023-09-19T05:16:21;99193.94;;;16.68
69186;BMP280;56298;49.246;9.410;2023-09-19T05:18:47;99202.63;;;16.78
69186;BMP280;56298;49.246;9.410;2023-09-19T05:21:12;99210.50;;;16.83
69186;BMP280;56298;49.246;9.410;2023-09-19T05:23:38;99211.59;;;16.96
69186;BMP280;56298;49.246;9.410;2023-09-19T05:26:03;99204.06;;;17.01
69186;BMP280;56298;49.246;9.410;2023-09-19T05:28:29;99201.66;;;17.06
69186;BMP280;56298;49.246;9.410;2023-09-19T05:30:54;99202.03;;;17.12
69186;BMP280;56298;49.246;9.410;2023-09-19T05:33:20;99197.63;;;17.18
69186;BMP280;56298;49.246;9.410;2023-09-19T05:35:45;99195.63;;;17.22
69186;BMP280;56298;49.246;9.410;2023-09-19T05:38:13;99201.09;;;17.33
69186;BMP280;56298;49.246;9.410;2023-09-19T05:40:39;99204.09;;;17.57
69186;BMP280;56298;49.246;9.410;2023-09-19T05:43:08;99203.38;;;17.91
69186;BMP280;56298;49.246;9.410;2023-09-19T05:45:34;99203.47;;;18.19
69186;BMP280;56298;49.246;9.410;2023-09-19T05:48:11;99208.72;;;18.44
69186;BMP280;56298;49.246;9.410;2023-09-19T05:50:37;99219.19;;;18.64
69186;BMP280;56298;49.246;9.410;2023-09-19T05:53:02;99218.19;;;18.81
69186;BMP280;56298;49.246;9.410;2023-09-19T05:55:29;99222.59;;;18.79
69186;BMP280;56298;49.246;9.410;2023-09-19T05:57:54;99223.94;;;18.67
69186;BMP280;56298;49.246;9.410;2023-09-19T06:00:20;99229.63;;;18.56
69186;BMP280;56298;49.246;9.410;2023-09-19T06:02:50;99227.31;;;18.51
69186;BMP280;56298;49.246;9.410;2023-09-19T06:05:16;99243.66;;;18.45
69186;BMP280;56298;49.246;9.410;2023-09-19T06:07:41;99242.41;;;18.50
69186;BMP280;56298;49.246;9.410;2023-09-19T06:10:07;99245.22;;;18.46
69186;BMP280;56298;49.246;9.410;2023-09-19T06:12:33;99244.03;;;18.47
69186;BMP280;56298;49.246;9.410;2023-09-19T06:15:04;99249.22;;;18.45
69186;BMP280;56298;49.246;9.410;2023-09-19T06:17:30;99249.97;;;18.46
69186;BMP280;56298;49.246;9.410;2023-09-19T06:19:56;99251.72;;;18.32
69186;BMP280;56298;49.246;9.410;2023-09-19T06:22:21;99265.16;;;18.37
69186;BMP280;56298;49.246;9.410;2023-09-19T06:24:47;99252.00;;;18.45
69186;BMP280;56298;49.246;9.410;2023-09-19T06:27:12;99263.88;;;18.46
69186;BMP280;56298;49.246;9.410;2023-09-19T06:29:38;99255.75;;;18.58
69186;BMP280;56298;49.246;9.410;2023-09-19T06:32:10;99258.88;;;18.64
69186;BMP280;56298;49.246;9.410;2023-09-19T06:34:36;99256.94;;;18.61
69186;BMP280;56298;49.246;9.410;2023-09-19T06:37:04;99260.88;;;18.64
69186;BMP280;56298;49.246;9.410;2023-09-19T06:39:29;99263.84;;;18.80
69186;BMP280;56298;49.246;9.410;2023-09-19T06:41:55;99260.53;;;18.93
69186;BMP280;56298;49.246;9.410;2023-09-19T06:44:20;99270.22;;;19.08
69186;BMP280;56298;49.246;9.410;2023-09-19T06:46:50;99270.09;;;19.19
69186;BMP280;56298;49.246;9.410;2023-09-19T06:49:16;99270.97;;;19.12
69186;BMP280;56298;49.246;9.410;2023-09-19T06:51:42;99271.72;;;19.16
69186;BMP280;56298;49.246;9.410;2023-09-19T06:54:08;99274.78;;;19.50
69186;BMP280;56298;49.246;9.410;2023-09-19T06:56:33;99273.22;;;19.49
69186;BMP280;56298;49.246;9.410;2023-09-19T06:58:58;99274.25;;;19.58
69186;BMP280;56298;49.246;9.410;2023-09-19T07:01:24;99275.03;;;19.59
69186;BMP280;56298;49.246;9.410;2023-09-19T07:03:50;99270.19;;;19.39
69186;BMP280;56298;49.246;9.410;2023-09-19T07:06:15;99268.41;;;19.49
69186;BMP280;56298;49.246;9.410;2023-09-19T07:08:40;99276.84;;;19.69
69186;BMP280;56298;49.246;9.410;2023-09-19T07:11:05;99285.44;;;19.79
69186;BMP280;56298;49.246;9.410;2023-09-19T07:13:31;99286.09;;;19.86
69186;BMP280;56298;49.246;9.410;2023-09-19T07:15:58;99283.16;;;19.73
69186;BMP280;56298;49.246;9.410;2023-09-19T07:18:24;99284.81;;;20.15
69186;BMP280;56298;49.246;9.410;2023-09-19T07:20:50;99287.03;;;20.24
69186;BMP280;56298;49.246;9.410;2023-09-19T07:23:18;99285.25;;;20.33
69186;BMP280;56298;49.246;9.410;2023-09-19T07:25:46;99290.63;;;20.20
69186;BMP280;56298;49.246;9.410;2023-09-19T07:28:12;99296.69;;;19.95
69186;BMP280;56298;49.246;9.410;2023-09-19T07:30:37;99296.88;;;19.84
69186;BMP280;56298;49.246;9.410;2023-09-19T07:33:05;99308.00;;;19.84
69186;BMP280;56298;49.246;9.410;2023-09-19T07:35:30;99315.63;;;19.80
69186;BMP280;56298;49.246;9.410;2023-09-19T07:37:56;99319.91;;;19.85
69186;BMP280;56298;49.246;9.410;2023-09-19T07:40:23;99325.63;;;20.01
69186;BMP280;56298;49.246;9.410;2023-09-19T07:42:49;99328.66;;;19.87
69186;BMP280;56298;49.246;9.410;2023-09-19T07:45:15;99328.66;;;19.87
69186;BMP280;56298;49.246;9.410;2023-09-19T07:47:49;99331.19;;;19.77
69186;BMP280;56298;49.246;9.410;2023-09-19T07:50:18;99325.84;;;19.63
69186;BMP280;56298;49.246;9.410;2023-09-19T07:52:45;99338.56;;;19.88
69186;BMP280;56298;49.246;9.410;2023-09-19T07:55:11;99329.91;;;19.82
69186;BMP280;56298;49.246;9.410;2023-09-19T07:57:40;99335.53;;;19.79
69186;BMP280;56298;49.246;9.410;2023-09-19T08:00:06;99346.59;;;20.06
69186;BMP280;56298;49.246;9.410;2023-09-19T08:02:37;99355.81;;;20.27
69186;BMP280;56298;49.246;9.410;2023-09-19T08:05:10;99349.97;;;20.41
69186;BMP280;56298;49.246;9.410;2023-09-19T08:07:37;99351.25;;;20.57
69186;BMP280;56298;49.246;9.410;2023-09-19T08:10:04;99348.41;;;20.80
69186;BMP280;56298;49.246;9.410;2023-09-19T08:12:30;99357.19;;;20.79
69186;BMP280;56298;49.246;9.410;2023-09-19T08:14:55;99350.88;;;20.95
69186;BMP280;56298;49.246;9.410;2023-09-19T08:17:21;99356.22;;;20.86
69186;BMP280;56298;49.246;9.410;2023-09-19T08:19:48;99362.19;;;20.88
69186;BMP280;56298;49.246;9.410;2023-09-19T08:24:42;99361.78;;;21.26
69186;BMP280;56298;49.246;9.410;2023-09-19T08:27:08;99368.84;;;21.31
69186;BMP280;56298;49.246;9.410;2023-09-19T08:29:35;99368.97;;;21.60
69186;BMP280;56298;49.246;9.410;2023-09-19T08:32:00;99376.91;;;21.95
69186;BMP280;56298;49.246;9.410;2023-09-19T08:34:26;99382.50;;;21.95
69186;BMP280;56298;49.246;9.410;2023-09-19T08:36:52;99383.34;;;22.25
69186;BMP280;56298;49.246;9.410;2023-09-19T08:39:21;99388.75;;;22.15
69186;BMP280;56298;49.246;9.410;2023-09-19T08:41:47;99391.19;;;22.13
69186;BMP280;56298;49.246;9.410;2023-09-19T08:44:12;99392.59;;;22.22
69186;BMP280;56298;49.246;9.410;2023-09-19T08:46:43;99392.59;;;22.22
69186;BMP280;56298;49.246;9.410;2023-09-19T08:49:18;99385.34;;;22.08
69186;BMP280;56298;49.246;9.410;2023-09-19T08:51:49;99382.41;;;21.82
69186;BMP280;56298;49.246;9.410;2023-09-19T08:54:31;99387.22;;;21.98
69186;BMP280;56298;49.246;9.410;2023-09-19T08:57:00;99393.72;;;22.24
69186;BMP280;56298;49.246;9.410;2023-09-19T08:59:30;99393.34;;;22.52
69186;BMP280;56298;49.246;9.410;2023-09-19T09:01:56;99395.16;;;22.75
69186;BMP280;56298;49.246;9.410;2023-09-19T09:04:23;99409.28;;;22.97
69186;BMP280;56298;49.246;9.410;2023-09-19T09:06:51;99396.22;;;22.65
69186;BMP280;56298;49.246;9.410;2023-09-19T09:09:18;99388.28;;;22.34
69186;BMP280;56298;49.246;9.410;2023-09-19T09:11:45;99399.28;;;22.24
69186;BMP280;56298;49.246;9.410;2023-09-19T09:14:11;99396.38;;;22.15
69186;BMP280;56298;49.246;9.410;2023-09-19T09:16:37;99392.44;;;21.79
69186;BMP280;56298;49.246;9.410;2023-09-19T09:19:02;99399.78;;;21.90
69186;BMP280;56298;49.246;9.410;2023-09-19T09:21:28;99405.47;;;21.86
69186;BMP280;56298;49.246;9.410;2023-09-19T09:23:54;99411.75;;;21.90
69186;BMP280;56298;49.246;9.410;2023-09-19T09:26:41;99405.53;;;21.82
69186;BMP280;56298;49.246;9.410;2023-09-19T09:29:12;99402.88;;;21.92
69186;BMP280;56298;49.246;9.410;2023-09-19T09:31:37;99405.84;;;21.68
69186;BMP280;56298;49.246;9.410;2023-09-19T09:34:03;99405.78;;;21.72
69186;BMP280;56298;49.246;9.410;2023-09-19T09:36:36;99402.81;;;21.79
69186;BMP280;56298;49.246;9.410;2023-09-19T09:39:01;99406.94;;;21.91
69186;BMP280;56298;49.246;9.410;2023-09-19T09:41:41;99408.47;;;21.92
69186;BMP280;56298;49.246;9.410;2023-09-19T09:44:14;99403.34;;;22.23
69186;BMP280;56298;49.246;9.410;2023-09-19T09:46:44;99405.00;;;21.88
69186;BMP280;56298;49.246;9.410;2023-09-19T09:49:22;99410.50;;;21.91
69186;BMP280;56298;49.246;9.410;2023-09-19T09:54:29;99403.81;;;22.51
69186;BMP280;56298;49.246;9.410;2023-09-19T09:57:05;99403.56;;;23.01
69186;BMP280;56298;49.246;9.410;2023-09-19T09:59:56;99391.97;;;23.28
69186;BMP280;56298;49.246;9.410;2023-09-19T10:02:42;99403.72;;;23.36
69186;BMP280;56298;49.246;9.410;2023-09-19T10:05:17;99391.84;;;23.45
69186;BMP280;56298;49.246;9.410;2023-09-19T10:07:48;99398.91;;;23.37
69186;BMP280;56298;49.246;9.410;2023-09-19T10:13:10;99394.78;;;23.41
69186;BMP280;56298;49.246;9.410;2023-09-19T10:15:43;99390.72;;;23.55
69186;BMP280;56298;49.246;9.410;2023-09-19T10:18:34;99391.59;;;23.78
69186;BMP280;56298;49.246;9.410;2023-09-19T10:21:01;99400.75;;;23.91
69186;BMP280;56298;49.246;9.410;2023-09-19T10:23:27;99403.41;;;23.95
69186;BMP280;56298;49.246;9.410;2023-09-19T10:25:56;99398.19;;;23.84
69186;BMP280;56298;49.246;9.410;2023-09-19T10:28:23;99404.16;;;23.73
69186;BMP280;56298;49.246;9.410;2023-09-19T10:30:52;99405.16;;;23.79
69186;BMP280;56298;49.246;9.410;2023-09-19T10:33:22;99396.69;;;23.92
69186;BMP280;56298;49.246;9.410;2023-09-19T10:35:51;99383.94;;;23.91
69186;BMP280;56298;49.246;9.410;2023-09-19T10:38:23;99396.69;;;23.92
69186;BMP280;56298;49.246;9.410;2023-09-19T10:40:50;99386.69;;;24.04
69186;BMP280;56298;49.246;9.410;2023-09-19T10:43:17;99389.84;;;24.06
69186;BMP280;56298;49.246;9.410;2023-09-19T10:45:45;99386.72;;;23.91
69186;BMP280;56298;49.246;9.410;2023-09-19T10:48:11;99382.88;;;23.63
69186;BMP280;56298;49.246;9.410;2023-09-19T10:50:44;99386.13;;;23.74
69186;BMP280;56298;49.246;9.410;2023-09-19T10:53:12;99388.03;;;23.52
69186;BMP280;56298;49.246;9.410;2023-09-19T10:55:39;99394.94;;;23.86
69186;BMP280;56298;49.246;9.410;2023-09-19T10:58:05;99387.88;;;23.81
69186;BMP280;56298;49.246;9.410;2023-09-19T11:00:56;99391.34;;;24.20
69186;BMP280;56298;49.246;9.410;2023-09-19T11:03:22;99374.69;;;24.39
69186;BMP280;56298;49.246;9.410;2023-09-19T11:11:51;99373.56;;;24.81
69186;BMP280;56298;49.246;9.410;2023-09-19T11:30:44;99355.09;;;25.02
69186;BMP280;56298;49.246;9.410;2023-09-19T11:33:26;99353.06;;;25.02
69186;BMP280;56298;49.246;9.410;2023-09-19T11:43:45;99365.13;;;24.59
69186;BMP280;56298;49.246;9.410;2023-09-19T11:46:12;99358.06;;;24.45
69186;BMP280;56298;49.246;9.410;2023-09-19T11:48:42;99363.47;;;24.39
69186;BMP280;56298;49.246;9.410;2023-09-19T11:51:26;99354.97;;;24.30
69186;BMP280;56298;49.246;9.410;2023-09-19T11:53:57;99354.03;;;24.46
69186;BMP280;56298;49.246;9.410;2023-09-19T11:56:25;99351.19;;;24.68
69186;BMP280;56298;49.246;9.410;2023-09-19T11:58:54;99351.31;;;24.96
69186;BMP280;56298;49.246;9.410;2023-09-19T12:01:31;99342.03;;;25.08
69186;BMP280;56298;49.246;9.410;2023-09-19T12:03:59;99346.09;;;25.16
69186;BMP280;56298;49.246;9.410;2023-09-19T12:09:40;99353.97;;;24.90
69186;BMP280;56298;49.246;9.410;2023-09-19T12:12:09;99321.47;;;24.80
69186;BMP280;56298;49.246;9.410;2023-09-19T12:14:34;99331.59;;;24.46
69186;BMP280;56298;49.246;9.410;2023-09-19T12:17:00;99335.63;;;24.45
69186;BMP280;56298;49.246;9.410;2023-09-19T12:19:27;99337.06;;;24.49
69186;BMP280;56298;49.246;9.410;2023-09-19T12:22:01;99335.44;;;24.70
69186;BMP280;56298;49.246;9.410;2023-09-19T12:24:29;99334.28;;;24.81
69186;BMP280;56298;49.246;9.410;2023-09-19T12:26:59;99333.94;;;24.79
69186;BMP280;56298;49.246;9.410;2023-09-19T12:29:26;99334.09;;;24.75
69186;BMP280;56298;49.246;9.410;2023-09-19T12:31:58;99327.72;;;24.84
69186;BMP280;56298;49.246;9.410;2023-09-19T12:34:28;99323.63;;;24.66
69186;BMP280;56298;49.246;9.410;2023-09-19T12:37:13;99324.53;;;24.63
69186;BMP280;56298;49.246;9.410;2023-09-19T12:39:49;99293.69;;;24.63
69186;BMP280;56298;49.246;9.410;2023-09-19T12:42:17;99317.06;;;24.69
69186;BMP280;56298;49.246;9.410;2023-09-19T12:44:45;99321.41;;;24.61
69186;BMP280;56298;49.246;9.410;2023-09-19T12:47:16;99327.84;;;24.71
69186;BMP280;56298;49.246;9.410;2023-09-19T12:50:17;99324.22;;;25.02
69186;BMP280;56298;49.246;9.410;2023-09-19T12:52:49;99316.88;;;24.95
69186;BMP280;56298;49.246;9.410;2023-09-19T12:55:21;99314.19;;;24.92
69186;BMP280;56298;49.246;9.410;2023-09-19T13:00:34;99307.78;;;24.82
69186;BMP280;56298;49.246;9.410;2023-09-19T13:03:32;99303.91;;;24.89
69186;BMP280;56298;49.246;9.410;2023-09-19T13:06:02;99300.53;;;24.62
69186;BMP280;56298;49.246;9.410;2023-09-19T13:08:38;99313.00;;;24.70
69186;BMP280;56298;49.246;9.410;2023-09-19T13:13:36;99306.47;;;24.64
69186;BMP280;56298;49.246;9.410;2023-09-19T13:16:02;99307.16;;;24.46
69186;BMP280;56298;49.246;9.410;2023-09-19T13:18:31;99315.72;;;24.52
69186;BMP280;56298;49.246;9.410;2023-09-19T13:21:08;99310.22;;;24.70
69186;BMP280;56298;49.246;9.410;2023-09-19T13:23:50;99310.31;;;24.98
69186;BMP280;56298;49.246;9.410;2023-09-19T13:26:17;99295.47;;;25.29
69186;BMP280;56298;49.246;9.410;2023-09-19T13:28:42;99293.47;;;25.48
69186;BMP280;56298;49.246;9.410;2023-09-19T13:31:09;99296.75;;;25.66
69186;BMP280;56298;49.246;9.410;2023-09-19T13:33:42;99300.88;;;25.24
69186;BMP280;56298;49.246;9.410;2023-09-19T13:36:08;99292.41;;;24.96
69186;BMP280;56298;49.246;9.410;2023-09-19T13:38:34;99288.13;;;24.73
69186;BMP280;56298;49.246;9.410;2023-09-19T13:41:00;99283.91;;;24.77
69186;BMP280;56298;49.246;9.410;2023-09-19T13:43:26;99283.47;;;24.47
69186;BMP280;56298;49.246;9.410;2023-09-19T13:45:51;99287.16;;;24.13
69186;BMP280;56298;49.246;9.410;2023-09-19T13:48:17;99290.09;;;23.87
69186;BMP280;56298;49.246;9.410;2023-09-19T13:50:45;99281.09;;;23.92
69186;BMP280;56298;49.246;9.410;2023-09-19T13:53:10;99284.94;;;24.07
69186;BMP280;56298;49.246;9.410;2023-09-19T13:55:36;99272.88;;;24.20
69186;BMP280;56298;49.246;9.410;2023-09-19T13:58:03;99271.97;;;24.01
69186;BMP280;56298;49.246;9.410;2023-09-19T14:00:30;99272.78;;;23.88
69186;BMP280;56298;49.246;9.410;2023-09-19T14:02:59;99270.41;;;24.00
69186;BMP280;56298;49.246;9.410;2023-09-19T14:05:26;99263.75;;;24.06
69186;BMP280;56298;49.246;9.410;2023-09-19T14:07:53;99268.06;;;23.98
69186;BMP280;56298;49.246;9.410;2023-09-19T14:10:19;99271.66;;;23.99
69186;BMP280;56298;49.246;9.410;2023-09-19T14:12:45;99267.47;;;24.03
69186;BMP280;56298;49.246;9.410;2023-09-19T14:15:11;99266.66;;;24.03
69186;BMP280;56298;49.246;9.410;2023-09-19T14:17:37;99258.91;;;24.07
69186;BMP280;56298;49.246;9.410;2023-09-19T14:20:03;99256.63;;;24.05
69186;BMP280;56298;49.246;9.410;2023-09-19T14:22:31;99265.94;;;24.02
69186;BMP280;56298;49.246;9.410;2023-09-19T14:24:56;99256.88;;;23.98
69186;BMP280;56298;49.246;9.410;2023-09-19T14:27:21;99254.78;;;23.89
69186;BMP280;56298;49.246;9.410;2023-09-19T14:29:46;99254.06;;;23.76
69186;BMP280;56298;49.246;9.410;2023-09-19T14:32:12;99250.22;;;23.83
69186;BMP280;56298;49.246;9.410;2023-09-19T14:34:37;99242.53;;;23.61
69186;BMP280;56298;49.246;9.410;2023-09-19T14:37:07;99255.78;;;23.60
69186;BMP280;56298;49.246;9.410;2023-09-19T14:39:32;99251.84;;;23.58
69186;BMP280;56298;49.246;9.410;2023-09-19T14:41:58;99253.69;;;23.52
69186;BMP280;56298;49.246;9.410;2023-09-19T14:44:23;99245.94;;;23.56
69186;BMP280;56298;49.246;9.410;2023-09-19T14:46:48;99246.50;;;23.50
69186;BMP280;56298;49.246;9.410;2023-09-19T14:49:14;99247.94;;;23.55
69186;BMP280;56298;49.246;9.410;2023-09-19T14:51:40;99242.25;;;23.46
69186;BMP280;56298;49.246;9.410;2023-09-19T14:54:06;99246.75;;;23.43
69186;BMP280;56298;49.246;9.410;2023-09-19T14:56:33;99252.34;;;23.43
69186;BMP280;56298;49.246;9.410;2023-09-19T14:58:58;99242.69;;;23.57
69186;BMP280;56298;49.246;9.410;2023-09-19T15:01:23;99234.94;;;23.61
69186;BMP280;56298;49.246;9.410;2023-09-19T15:03:49;99239.25;;;23.53
69186;BMP280;56298;49.246;9.410;2023-09-19T15:08:49;99232.78;;;23.30
69186;BMP280;56298;49.246;9.410;2023-09-19T15:11:19;99231.00;;;23.24
69186;BMP280;56298;49.246;9.410;2023-09-19T15:13:46;99228.22;;;23.24
69186;BMP280;56298;49.246;9.410;2023-09-19T15:16:12;99230.03;;;23.17
69186;BMP280;56298;49.246;9.410;2023-09-19T15:18:39;99232.28;;;23.10